NCAR-RAP Real-Time Weather Data

Output produced by METARs form (26 May 2022  08:05 UTC)
found at http://weather.rap.ucar.edu/surface/
 
VTBD 260730Z 29010KT 240V320 9999 FEW020 34/24 Q1005 NOSIG
VTBD 260700Z 27011KT 9999 FEW020 33/23 Q1005 NOSIG
VTBD 260630Z 29011KT 250V340 9999 FEW020 34/24 Q1006 NOSIG
VTBD 260600Z 29010KT 240V330 9999 FEW020 34/24 Q1006 NOSIG
VTBD 260530Z 26010KT 220V290 9999 FEW020 34/24 Q1007 NOSIG
VTBD 260500Z 26012KT 9999 FEW020 33/24 Q1007 NOSIG
VTBD 260430Z 25013KT 220V280 9999 FEW020 32/23 Q1008 NOSIG
VTBD 260400Z 25012KT 220V300 9999 FEW020 32/23 Q1008 NOSIG
VTBD 260330Z 25014KT 9999 FEW020 32/24 Q1008 NOSIG
VTBD 260300Z 25013KT 220V280 9999 FEW020 32/24 Q1008 NOSIG
VTBD 260230Z 24012KT 9999 FEW020 31/24 Q1008 NOSIG
VTBD 260200Z 22010KT 9999 FEW020 31/25 Q1008 NOSIG
VTBD 260130Z 24009KT 9999 FEW020 30/24 Q1008 NOSIG
VTBD 260100Z 23008KT 200V260 9999 FEW020 30/24 Q1007 NOSIG
VTBD 260030Z 21006KT 9999 FEW020 29/26 Q1007 NOSIG
VTBD 260000Z 22005KT 9999 FEW020 28/26 Q1007 NOSIG
VTBD 252330Z 26005KT 230V300 9999 SCT020 27/25 Q1007 NOSIG
VTBD 252300Z 29003KT 250V320 9999 SCT020 27/26 Q1007 NOSIG
VTBD 252230Z 23002KT 9999 SCT020 26/26 Q1007 NOSIG
VTBD 252200Z VRB02KT 9999 FEW020 26/26 Q1007 NOSIG
VTBD 252130Z 23005KT 9999 FEW020 27/25 Q1006 NOSIG
VTBD 252100Z 22005KT 9999 FEW020 26/26 Q1006 NOSIG
VTBD 252030Z 24005KT 9999 FEW020 27/25 Q1007 NOSIG